Mobile, AL

11:30 AM CDT on April 29, 2017 (GMT -0500)
Champion Hills S/D | | Change Station
Active Advisory: Wind Advisory

Elev 154 ft 30.61 °N, 88.26 °W | Updated 9 minutes ago

Mostly Cloudy
Mostly Cloudy
80.1 °F
Feels Like 84 °F
N
6.0
Wind Variable Wind from SSE
Gusts 9.0 mph

Today
High -- | Low -- °F
--% Chance of Precip.
Yesterday
High -- | Low -- °F
Precip. -- in
Pressure 30.03 in
Visibility 10.0 miles
Clouds Mostly Cloudy 1900 ft
Mostly Cloudy 2400 ft
Heat Index 84 °F
Dew Point 72 °F
Humidity 77%
Rainfall 0.00 in
Snow Depth Not available.
6:10 AM 7:30 PM
Waxing Crescent, 14% visible
METAR KMOB 291556Z 14014G22KT 10SM BKN019 BKN024 27/22 A3004 RMK AO2 PK WND 14028/1459 SLP168 T02720217
Pressure 30.03 in
Visibility 10.0 miles
Clouds Mostly Cloudy 1900 ft
Mostly Cloudy 2400 ft
Heat Index 84 °F
Dew Point 72 °F
Humidity 77%
Rainfall 0.00 in
Snow Depth Not available.
6:10 AM 7:30 PM
Waxing Crescent, 14% visible
METAR KMOB 291556Z 14014G22KT 10SM BKN019 BKN024 27/22 A3004 RMK AO2 PK WND 14028/1459 SLP168 T02720217

Get Your Daily Forecast Email!

Thanks for signing up!

Be on the lookout for a verification email in your inbox.

You'll start receiving severe weather alerts in your inbox..

×

10-Day Weather Forecast

Almanac

Astronomy

Apr. 29, 2017 Rise Set
Actual Time
Civil Twilight
Nautical Twilight
Astronomical Twilight
Moon
Length of Visible Light
Length of Day
Tomorrow will be .
, % of the Moon is Illuminated

Today's Extremes

State Highs State Lows

Community

WunderPhotos

WunderBlog® & News

Nearby

Air Quality

  Air Quality AQ Index Pollutant
Not available.

Snow Depth

Station Depth Elevation

Earthquake Activity

City Distance Mag. Time & Date
Minimum magnitude displayed is 2.5.

Coastal Water Temperatures

Place Temperature

Stations

Nearby Weather Stations

Station Location Temp. Windchill Dew Point Humidity Wind Precip. Elev Updated Type
                   

Watches & Warnings

Wind Advisory
Issued: 4:49 AM CDT Apr. 29, 2017 – National Weather Service

... Wind Advisory remains in effect until midnight CDT Sunday
night...

* timing... from this morning through Sunday night.

* Winds... south 15 to 25 mph with frequent gusts around 35 mph.

Precautionary/preparedness actions...

A Wind Advisory means that winds of 25 to 39 mph or frequent
gusts of 30 to 39 mph are expected. Winds this strong can make
driving difficult, especially for high profile vehicles. Use
extra caution.